sensor_id;sensor_type;location;lat;lon;timestamp;temperature;humidity
68485;DHT22;55472;50.060;21.960;2023-05-07T00:02:00;11.60;94.30
68485;DHT22;55472;50.060;21.960;2023-05-07T00:04:27;11.60;94.50
68485;DHT22;55472;50.060;21.960;2023-05-07T00:06:53;11.60;95.00
68485;DHT22;55472;50.060;21.960;2023-05-07T00:09:21;11.60;94.80
68485;DHT22;55472;50.060;21.960;2023-05-07T00:11:47;11.60;94.80
68485;DHT22;55472;50.060;21.960;2023-05-07T00:14:13;11.60;94.80
68485;DHT22;55472;50.060;21.960;2023-05-07T00:16:39;11.60;94.40
68485;DHT22;55472;50.060;21.960;2023-05-07T00:19:05;11.60;94.10
68485;DHT22;55472;50.060;21.960;2023-05-07T00:21:31;11.50;93.40
68485;DHT22;55472;50.060;21.960;2023-05-07T00:23:58;11.50;93.10
68485;DHT22;55472;50.060;21.960;2023-05-07T00:26:24;11.40;93.20
68485;DHT22;55472;50.060;21.960;2023-05-07T00:28:50;11.40;93.00
68485;DHT22;55472;50.060;21.960;2023-05-07T00:31:16;11.30;92.90
68485;DHT22;55472;50.060;21.960;2023-05-07T00:33:42;11.30;92.80
68485;DHT22;55472;50.060;21.960;2023-05-07T00:36:08;11.30;92.70
68485;DHT22;55472;50.060;21.960;2023-05-07T00:38:35;11.20;92.70
68485;DHT22;55472;50.060;21.960;2023-05-07T00:41:01;11.10;92.70
68485;DHT22;55472;50.060;21.960;2023-05-07T00:43:28;11.10;92.50
68485;DHT22;55472;50.060;21.960;2023-05-07T00:45:55;11.10;92.80
68485;DHT22;55472;50.060;21.960;2023-05-07T00:48:22;11.00;92.90
68485;DHT22;55472;50.060;21.960;2023-05-07T00:50:50;11.00;93.10
68485;DHT22;55472;50.060;21.960;2023-05-07T00:53:16;11.00;93.00
68485;DHT22;55472;50.060;21.960;2023-05-07T00:55:42;11.00;92.90
68485;DHT22;55472;50.060;21.960;2023-05-07T00:58:09;10.90;92.80
68485;DHT22;55472;50.060;21.960;2023-05-07T01:00:35;10.90;92.90
68485;DHT22;55472;50.060;21.960;2023-05-07T01:03:02;10.90;92.80
68485;DHT22;55472;50.060;21.960;2023-05-07T01:05:29;10.80;92.80
68485;DHT22;55472;50.060;21.960;2023-05-07T01:07:57;10.80;92.80
68485;DHT22;55472;50.060;21.960;2023-05-07T01:10:24;10.80;92.90
68485;DHT22;55472;50.060;21.960;2023-05-07T01:12:51;10.70;93.00
68485;DHT22;55472;50.060;21.960;2023-05-07T01:15:18;10.70;92.90
68485;DHT22;55472;50.060;21.960;2023-05-07T01:17:44;10.70;93.00
68485;DHT22;55472;50.060;21.960;2023-05-07T01:20:11;10.60;93.10
68485;DHT22;55472;50.060;21.960;2023-05-07T01:22:38;10.60;93.40
68485;DHT22;55472;50.060;21.960;2023-05-07T01:25:05;10.60;93.60
68485;DHT22;55472;50.060;21.960;2023-05-07T01:27:34;10.60;93.50
68485;DHT22;55472;50.060;21.960;2023-05-07T01:30:03;10.60;93.30
68485;DHT22;55472;50.060;21.960;2023-05-07T01:32:43;10.60;93.50
68485;DHT22;55472;50.060;21.960;2023-05-07T01:35:19;10.60;93.50
68485;DHT22;55472;50.060;21.960;2023-05-07T01:37:47;10.60;93.60
68485;DHT22;55472;50.060;21.960;2023-05-07T01:40:14;10.50;93.50
68485;DHT22;55472;50.060;21.960;2023-05-07T01:42:42;10.50;93.70
68485;DHT22;55472;50.060;21.960;2023-05-07T01:45:10;10.50;93.50
68485;DHT22;55472;50.060;21.960;2023-05-07T01:47:37;10.50;92.90
68485;DHT22;55472;50.060;21.960;2023-05-07T01:50:08;10.50;92.90
68485;DHT22;55472;50.060;21.960;2023-05-07T01:52:37;10.40;92.60
68485;DHT22;55472;50.060;21.960;2023-05-07T01:55:05;10.40;92.80
68485;DHT22;55472;50.060;21.960;2023-05-07T01:57:32;10.40;92.90
68485;DHT22;55472;50.060;21.960;2023-05-07T01:59:58;10.40;93.10
68485;DHT22;55472;50.060;21.960;2023-05-07T02:02:24;10.40;93.20
68485;DHT22;55472;50.060;21.960;2023-05-07T02:04:51;10.40;93.40
68485;DHT22;55472;50.060;21.960;2023-05-07T02:07:17;10.30;93.00
68485;DHT22;55472;50.060;21.960;2023-05-07T02:09:43;10.30;92.90
68485;DHT22;55472;50.060;21.960;2023-05-07T02:12:09;10.30;92.60
68485;DHT22;55472;50.060;21.960;2023-05-07T02:14:35;10.30;92.30
68485;DHT22;55472;50.060;21.960;2023-05-07T02:17:01;10.30;92.60
68485;DHT22;55472;50.060;21.960;2023-05-07T02:19:28;10.30;92.60
68485;DHT22;55472;50.060;21.960;2023-05-07T02:21:54;10.30;92.90
68485;DHT22;55472;50.060;21.960;2023-05-07T02:24:20;10.30;92.90
68485;DHT22;55472;50.060;21.960;2023-05-07T02:26:46;10.30;92.70
68485;DHT22;55472;50.060;21.960;2023-05-07T02:29:12;10.20;93.00
68485;DHT22;55472;50.060;21.960;2023-05-07T02:31:38;10.20;92.90
68485;DHT22;55472;50.060;21.960;2023-05-07T02:34:05;10.20;92.70
68485;DHT22;55472;50.060;21.960;2023-05-07T02:36:31;10.20;92.60
68485;DHT22;55472;50.060;21.960;2023-05-07T02:38:57;10.20;92.30
68485;DHT22;55472;50.060;21.960;2023-05-07T02:41:23;10.10;92.00
68485;DHT22;55472;50.060;21.960;2023-05-07T02:43:49;10.10;92.30
68485;DHT22;55472;50.060;21.960;2023-05-07T02:46:15;10.10;92.20
68485;DHT22;55472;50.060;21.960;2023-05-07T02:48:42;10.10;92.20
68485;DHT22;55472;50.060;21.960;2023-05-07T02:51:08;10.10;92.50
68485;DHT22;55472;50.060;21.960;2023-05-07T02:53:35;10.10;93.10
68485;DHT22;55472;50.060;21.960;2023-05-07T02:56:01;10.10;93.30
68485;DHT22;55472;50.060;21.960;2023-05-07T02:58:28;10.10;92.90
68485;DHT22;55472;50.060;21.960;2023-05-07T03:00:54;10.10;93.10
68485;DHT22;55472;50.060;21.960;2023-05-07T03:03:21;10.00;93.00
68485;DHT22;55472;50.060;21.960;2023-05-07T03:05:47;10.00;92.90
68485;DHT22;55472;50.060;21.960;2023-05-07T03:08:13;10.00;92.60
68485;DHT22;55472;50.060;21.960;2023-05-07T03:10:40;10.00;92.60
68485;DHT22;55472;50.060;21.960;2023-05-07T03:13:06;10.00;92.30
68485;DHT22;55472;50.060;21.960;2023-05-07T03:15:32;9.90;92.10
68485;DHT22;55472;50.060;21.960;2023-05-07T03:17:58;9.90;91.70
68485;DHT22;55472;50.060;21.960;2023-05-07T03:20:24;9.90;91.60
68485;DHT22;55472;50.060;21.960;2023-05-07T03:22:51;9.80;91.90
68485;DHT22;55472;50.060;21.960;2023-05-07T03:25:17;9.80;91.30
68485;DHT22;55472;50.060;21.960;2023-05-07T03:27:43;9.70;91.40
68485;DHT22;55472;50.060;21.960;2023-05-07T03:30:10;9.70;91.70
68485;DHT22;55472;50.060;21.960;2023-05-07T03:32:37;9.70;91.10
68485;DHT22;55472;50.060;21.960;2023-05-07T03:35:03;9.70;90.60
68485;DHT22;55472;50.060;21.960;2023-05-07T03:37:30;9.60;90.30
68485;DHT22;55472;50.060;21.960;2023-05-07T03:39:56;9.50;91.00
68485;DHT22;55472;50.060;21.960;2023-05-07T03:42:23;9.50;91.00
68485;DHT22;55472;50.060;21.960;2023-05-07T03:44:49;9.40;91.20
68485;DHT22;55472;50.060;21.960;2023-05-07T03:47:15;9.40;91.50
68485;DHT22;55472;50.060;21.960;2023-05-07T03:49:41;9.40;92.10
68485;DHT22;55472;50.060;21.960;2023-05-07T03:52:07;9.40;92.00
68485;DHT22;55472;50.060;21.960;2023-05-07T03:54:33;9.40;91.70
68485;DHT22;55472;50.060;21.960;2023-05-07T03:57:00;9.30;91.30
68485;DHT22;55472;50.060;21.960;2023-05-07T03:59:26;9.30;91.70
68485;DHT22;55472;50.060;21.960;2023-05-07T04:01:52;9.30;91.90
68485;DHT22;55472;50.060;21.960;2023-05-07T04:04:18;9.30;91.60
68485;DHT22;55472;50.060;21.960;2023-05-07T04:06:46;9.30;91.60
68485;DHT22;55472;50.060;21.960;2023-05-07T04:09:12;9.30;91.50
68485;DHT22;55472;50.060;21.960;2023-05-07T04:11:39;9.20;91.70
68485;DHT22;55472;50.060;21.960;2023-05-07T04:14:06;9.20;91.70
68485;DHT22;55472;50.060;21.960;2023-05-07T04:16:32;9.20;91.60
68485;DHT22;55472;50.060;21.960;2023-05-07T04:19:00;9.10;91.60
68485;DHT22;55472;50.060;21.960;2023-05-07T04:21:27;9.10;91.90
68485;DHT22;55472;50.060;21.960;2023-05-07T04:23:53;9.10;92.40
68485;DHT22;55472;50.060;21.960;2023-05-07T04:26:19;9.10;92.40
68485;DHT22;55472;50.060;21.960;2023-05-07T04:28:46;9.10;92.50
68485;DHT22;55472;50.060;21.960;2023-05-07T04:31:13;9.10;92.70
68485;DHT22;55472;50.060;21.960;2023-05-07T04:33:39;9.10;93.10
68485;DHT22;55472;50.060;21.960;2023-05-07T04:36:05;9.10;92.90
68485;DHT22;55472;50.060;21.960;2023-05-07T04:38:32;9.10;92.70
68485;DHT22;55472;50.060;21.960;2023-05-07T04:41:03;9.00;92.40
68485;DHT22;55472;50.060;21.960;2023-05-07T04:43:30;9.00;92.30
68485;DHT22;55472;50.060;21.960;2023-05-07T04:45:57;9.00;92.60
68485;DHT22;55472;50.060;21.960;2023-05-07T04:48:23;9.00;92.70
68485;DHT22;55472;50.060;21.960;2023-05-07T04:50:50;9.00;92.70
68485;DHT22;55472;50.060;21.960;2023-05-07T04:53:17;9.00;92.40
68485;DHT22;55472;50.060;21.960;2023-05-07T04:55:44;8.90;92.20
68485;DHT22;55472;50.060;21.960;2023-05-07T04:58:11;9.00;92.10
68485;DHT22;55472;50.060;21.960;2023-05-07T05:00:38;8.90;91.60
68485;DHT22;55472;50.060;21.960;2023-05-07T05:03:08;8.90;91.40
68485;DHT22;55472;50.060;21.960;2023-05-07T05:05:34;8.90;91.90
68485;DHT22;55472;50.060;21.960;2023-05-07T05:08:01;8.90;91.50
68485;DHT22;55472;50.060;21.960;2023-05-07T05:10:27;8.90;91.20
68485;DHT22;55472;50.060;21.960;2023-05-07T05:12:54;8.90;91.30
68485;DHT22;55472;50.060;21.960;2023-05-07T05:15:20;8.90;91.20
68485;DHT22;55472;50.060;21.960;2023-05-07T05:17:47;8.90;90.50
68485;DHT22;55472;50.060;21.960;2023-05-07T05:20:13;8.90;90.50
68485;DHT22;55472;50.060;21.960;2023-05-07T05:22:41;8.90;90.50
68485;DHT22;55472;50.060;21.960;2023-05-07T05:25:08;8.90;90.50
68485;DHT22;55472;50.060;21.960;2023-05-07T05:27:34;8.90;90.60
68485;DHT22;55472;50.060;21.960;2023-05-07T05:30:01;8.90;90.00
68485;DHT22;55472;50.060;21.960;2023-05-07T05:32:28;8.90;89.80
68485;DHT22;55472;50.060;21.960;2023-05-07T05:34:54;8.90;90.60
68485;DHT22;55472;50.060;21.960;2023-05-07T05:37:21;8.90;90.20
68485;DHT22;55472;50.060;21.960;2023-05-07T05:39:47;8.90;90.00
68485;DHT22;55472;50.060;21.960;2023-05-07T05:42:13;8.90;89.60
68485;DHT22;55472;50.060;21.960;2023-05-07T05:44:40;8.90;89.70
68485;DHT22;55472;50.060;21.960;2023-05-07T05:47:06;8.90;90.00
68485;DHT22;55472;50.060;21.960;2023-05-07T05:49:32;8.90;90.30
68485;DHT22;55472;50.060;21.960;2023-05-07T05:51:58;8.90;90.20
68485;DHT22;55472;50.060;21.960;2023-05-07T05:54:24;8.90;89.30
68485;DHT22;55472;50.060;21.960;2023-05-07T05:56:51;8.90;88.70
68485;DHT22;55472;50.060;21.960;2023-05-07T05:59:17;8.90;89.10
68485;DHT22;55472;50.060;21.960;2023-05-07T06:01:43;8.90;89.10
68485;DHT22;55472;50.060;21.960;2023-05-07T06:04:10;8.80;89.40
68485;DHT22;55472;50.060;21.960;2023-05-07T06:06:36;8.90;89.70
68485;DHT22;55472;50.060;21.960;2023-05-07T06:09:02;8.90;89.00
68485;DHT22;55472;50.060;21.960;2023-05-07T06:11:28;8.90;89.00
68485;DHT22;55472;50.060;21.960;2023-05-07T06:13:55;8.90;88.30
68485;DHT22;55472;50.060;21.960;2023-05-07T06:16:21;8.90;88.20
68485;DHT22;55472;50.060;21.960;2023-05-07T06:18:47;8.80;87.80
68485;DHT22;55472;50.060;21.960;2023-05-07T06:21:14;8.80;88.00
68485;DHT22;55472;50.060;21.960;2023-05-07T06:23:41;8.80;88.70
68485;DHT22;55472;50.060;21.960;2023-05-07T06:26:07;8.80;88.50
68485;DHT22;55472;50.060;21.960;2023-05-07T06:28:33;8.80;88.30
68485;DHT22;55472;50.060;21.960;2023-05-07T06:31:19;8.80;87.80
68485;DHT22;55472;50.060;21.960;2023-05-07T06:33:49;8.80;87.70
68485;DHT22;55472;50.060;21.960;2023-05-07T06:36:15;8.70;88.30
68485;DHT22;55472;50.060;21.960;2023-05-07T06:38:42;8.70;88.00
68485;DHT22;55472;50.060;21.960;2023-05-07T06:41:08;8.70;88.10
68485;DHT22;55472;50.060;21.960;2023-05-07T06:43:35;8.70;88.30
68485;DHT22;55472;50.060;21.960;2023-05-07T06:46:01;8.70;88.50
68485;DHT22;55472;50.060;21.960;2023-05-07T06:48:28;8.70;88.80
68485;DHT22;55472;50.060;21.960;2023-05-07T06:50:54;8.70;88.40
68485;DHT22;55472;50.060;21.960;2023-05-07T06:53:21;8.80;88.20
68485;DHT22;55472;50.060;21.960;2023-05-07T06:55:47;8.80;87.90
68485;DHT22;55472;50.060;21.960;2023-05-07T06:58:14;8.80;87.70
68485;DHT22;55472;50.060;21.960;2023-05-07T07:00:40;8.80;88.00
68485;DHT22;55472;50.060;21.960;2023-05-07T07:03:07;8.80;88.00
68485;DHT22;55472;50.060;21.960;2023-05-07T07:05:33;8.70;87.80
68485;DHT22;55472;50.060;21.960;2023-05-07T07:07:59;8.70;88.00
68485;DHT22;55472;50.060;21.960;2023-05-07T07:10:25;8.70;87.80
68485;DHT22;55472;50.060;21.960;2023-05-07T07:12:52;8.70;87.80
68485;DHT22;55472;50.060;21.960;2023-05-07T07:15:19;8.70;87.60
68485;DHT22;55472;50.060;21.960;2023-05-07T07:17:46;8.70;87.40
68485;DHT22;55472;50.060;21.960;2023-05-07T07:20:13;8.70;87.00
68485;DHT22;55472;50.060;21.960;2023-05-07T07:22:39;8.70;86.70
68485;DHT22;55472;50.060;21.960;2023-05-07T07:25:06;8.70;86.80
68485;DHT22;55472;50.060;21.960;2023-05-07T07:27:32;8.70;86.60
68485;DHT22;55472;50.060;21.960;2023-05-07T07:29:58;8.70;87.20
68485;DHT22;55472;50.060;21.960;2023-05-07T07:32:25;8.70;87.40
68485;DHT22;55472;50.060;21.960;2023-05-07T07:34:51;8.80;86.60
68485;DHT22;55472;50.060;21.960;2023-05-07T07:37:18;8.80;87.60
68485;DHT22;55472;50.060;21.960;2023-05-07T07:39:44;8.80;87.20
68485;DHT22;55472;50.060;21.960;2023-05-07T07:42:11;8.80;86.90
68485;DHT22;55472;50.060;21.960;2023-05-07T07:44:37;8.80;87.00
68485;DHT22;55472;50.060;21.960;2023-05-07T07:47:05;8.80;86.20
68485;DHT22;55472;50.060;21.960;2023-05-07T07:49:34;8.80;85.90
68485;DHT22;55472;50.060;21.960;2023-05-07T07:52:01;8.80;86.30
68485;DHT22;55472;50.060;21.960;2023-05-07T07:54:27;8.80;86.60
68485;DHT22;55472;50.060;21.960;2023-05-07T07:56:55;8.70;85.60
68485;DHT22;55472;50.060;21.960;2023-05-07T07:59:21;8.70;85.60
68485;DHT22;55472;50.060;21.960;2023-05-07T08:01:48;8.70;86.40
68485;DHT22;55472;50.060;21.960;2023-05-07T08:04:15;8.60;86.10
68485;DHT22;55472;50.060;21.960;2023-05-07T08:06:42;8.60;86.20
68485;DHT22;55472;50.060;21.960;2023-05-07T08:09:08;8.60;86.00
68485;DHT22;55472;50.060;21.960;2023-05-07T08:11:34;8.60;86.60
68485;DHT22;55472;50.060;21.960;2023-05-07T08:14:01;8.60;86.80
68485;DHT22;55472;50.060;21.960;2023-05-07T08:16:27;8.60;87.00
68485;DHT22;55472;50.060;21.960;2023-05-07T08:18:53;8.60;86.40
68485;DHT22;55472;50.060;21.960;2023-05-07T08:21:20;8.60;86.30
68485;DHT22;55472;50.060;21.960;2023-05-07T08:23:46;8.60;86.00
68485;DHT22;55472;50.060;21.960;2023-05-07T08:26:12;8.50;86.70
68485;DHT22;55472;50.060;21.960;2023-05-07T08:28:38;8.60;86.00
68485;DHT22;55472;50.060;21.960;2023-05-07T08:31:05;8.60;86.60
68485;DHT22;55472;50.060;21.960;2023-05-07T08:33:31;8.60;86.60
68485;DHT22;55472;50.060;21.960;2023-05-07T08:35:57;8.60;86.10
68485;DHT22;55472;50.060;21.960;2023-05-07T08:38:23;8.60;86.10
68485;DHT22;55472;50.060;21.960;2023-05-07T08:40:50;8.60;85.80
68485;DHT22;55472;50.060;21.960;2023-05-07T08:43:17;8.60;86.10
68485;DHT22;55472;50.060;21.960;2023-05-07T08:45:45;8.60;85.70
68485;DHT22;55472;50.060;21.960;2023-05-07T08:48:16;8.60;85.40
68485;DHT22;55472;50.060;21.960;2023-05-07T08:50:43;8.50;85.30
68485;DHT22;55472;50.060;21.960;2023-05-07T08:53:09;8.60;85.00
68485;DHT22;55472;50.060;21.960;2023-05-07T08:55:35;8.50;84.80
68485;DHT22;55472;50.060;21.960;2023-05-07T08:58:01;8.60;84.80
68485;DHT22;55472;50.060;21.960;2023-05-07T09:00:27;8.60;84.70
68485;DHT22;55472;50.060;21.960;2023-05-07T09:02:54;8.50;84.30
68485;DHT22;55472;50.060;21.960;2023-05-07T09:05:20;8.60;84.60
68485;DHT22;55472;50.060;21.960;2023-05-07T09:07:47;8.50;84.70
68485;DHT22;55472;50.060;21.960;2023-05-07T09:10:13;8.50;84.30
68485;DHT22;55472;50.060;21.960;2023-05-07T09:12:40;8.50;84.50
68485;DHT22;55472;50.060;21.960;2023-05-07T09:15:07;8.50;85.70
68485;DHT22;55472;50.060;21.960;2023-05-07T09:17:33;8.60;85.70
68485;DHT22;55472;50.060;21.960;2023-05-07T09:20:06;8.60;85.00
68485;DHT22;55472;50.060;21.960;2023-05-07T09:22:33;8.60;84.60
68485;DHT22;55472;50.060;21.960;2023-05-07T09:25:00;8.70;84.10
68485;DHT22;55472;50.060;21.960;2023-05-07T09:27:26;8.60;83.20
68485;DHT22;55472;50.060;21.960;2023-05-07T09:29:52;8.60;83.70
68485;DHT22;55472;50.060;21.960;2023-05-07T09:32:18;8.60;83.50
68485;DHT22;55472;50.060;21.960;2023-05-07T09:34:45;8.60;83.60
68485;DHT22;55472;50.060;21.960;2023-05-07T09:37:13;8.60;83.30
68485;DHT22;55472;50.060;21.960;2023-05-07T09:39:49;8.60;83.10
68485;DHT22;55472;50.060;21.960;2023-05-07T09:42:16;8.60;83.90
68485;DHT22;55472;50.060;21.960;2023-05-07T09:44:43;8.60;84.80
68485;DHT22;55472;50.060;21.960;2023-05-07T09:47:10;8.70;83.30
68485;DHT22;55472;50.060;21.960;2023-05-07T09:49:39;8.70;83.20
68485;DHT22;55472;50.060;21.960;2023-05-07T09:52:08;8.70;82.40
68485;DHT22;55472;50.060;21.960;2023-05-07T09:54:37;8.60;83.10
68485;DHT22;55472;50.060;21.960;2023-05-07T09:57:06;8.60;82.90
68485;DHT22;55472;50.060;21.960;2023-05-07T09:59:34;8.60;82.80
68485;DHT22;55472;50.060;21.960;2023-05-07T10:02:01;8.60;82.40
68485;DHT22;55472;50.060;21.960;2023-05-07T10:04:29;8.60;83.50
68485;DHT22;55472;50.060;21.960;2023-05-07T10:06:56;8.60;82.90
68485;DHT22;55472;50.060;21.960;2023-05-07T10:09:25;8.50;82.90
68485;DHT22;55472;50.060;21.960;2023-05-07T10:11:52;8.50;83.30
68485;DHT22;55472;50.060;21.960;2023-05-07T10:14:20;8.40;83.30
68485;DHT22;55472;50.060;21.960;2023-05-07T10:16:48;8.40;83.10
68485;DHT22;55472;50.060;21.960;2023-05-07T10:19:14;8.40;83.30
68485;DHT22;55472;50.060;21.960;2023-05-07T10:21:48;8.40;83.20
68485;DHT22;55472;50.060;21.960;2023-05-07T10:24:36;8.40;82.80
68485;DHT22;55472;50.060;21.960;2023-05-07T10:27:06;8.40;83.10
68485;DHT22;55472;50.060;21.960;2023-05-07T10:30:14;8.40;83.10
68485;DHT22;55472;50.060;21.960;2023-05-07T10:32:48;8.40;82.70
68485;DHT22;55472;50.060;21.960;2023-05-07T10:35:22;8.40;83.10
68485;DHT22;55472;50.060;21.960;2023-05-07T10:37:50;8.40;83.30
68485;DHT22;55472;50.060;21.960;2023-05-07T10:40:18;8.40;83.10
68485;DHT22;55472;50.060;21.960;2023-05-07T10:42:57;8.40;82.70
68485;DHT22;55472;50.060;21.960;2023-05-07T10:45:26;8.40;82.80
68485;DHT22;55472;50.060;21.960;2023-05-07T10:48:15;8.40;82.80
68485;DHT22;55472;50.060;21.960;2023-05-07T10:50:43;8.30;83.10
68485;DHT22;55472;50.060;21.960;2023-05-07T10:55:45;8.40;83.20
68485;DHT22;55472;50.060;21.960;2023-05-07T11:01:00;8.40;83.30
68485;DHT22;55472;50.060;21.960;2023-05-07T11:03:27;8.40;83.10
68485;DHT22;55472;50.060;21.960;2023-05-07T11:06:14;8.40;82.70
68485;DHT22;55472;50.060;21.960;2023-05-07T11:11:45;8.30;82.70
68485;DHT22;55472;50.060;21.960;2023-05-07T11:14:14;8.30;82.50
68485;DHT22;55472;50.060;21.960;2023-05-07T11:16:43;8.30;82.80
68485;DHT22;55472;50.060;21.960;2023-05-07T11:19:09;8.30;83.20
68485;DHT22;55472;50.060;21.960;2023-05-07T11:21:40;8.30;83.00
68485;DHT22;55472;50.060;21.960;2023-05-07T11:24:08;8.30;82.90
68485;DHT22;55472;50.060;21.960;2023-05-07T11:26:49;8.30;82.60
68485;DHT22;55472;50.060;21.960;2023-05-07T11:29:20;8.30;83.00
68485;DHT22;55472;50.060;21.960;2023-05-07T11:31:51;8.20;82.70
68485;DHT22;55472;50.060;21.960;2023-05-07T11:34:25;8.20;83.20
68485;DHT22;55472;50.060;21.960;2023-05-07T11:36:53;8.20;83.20
68485;DHT22;55472;50.060;21.960;2023-05-07T11:39:39;8.20;82.70
68485;DHT22;55472;50.060;21.960;2023-05-07T11:42:05;8.20;82.80
68485;DHT22;55472;50.060;21.960;2023-05-07T11:44:42;8.10;82.40
68485;DHT22;55472;50.060;21.960;2023-05-07T11:47:17;8.20;83.30
68485;DHT22;55472;50.060;21.960;2023-05-07T11:49:49;8.10;82.70
68485;DHT22;55472;50.060;21.960;2023-05-07T11:52:17;8.10;83.30
68485;DHT22;55472;50.060;21.960;2023-05-07T11:54:54;8.10;83.20
68485;DHT22;55472;50.060;21.960;2023-05-07T11:57:22;8.10;82.70
68485;DHT22;55472;50.060;21.960;2023-05-07T11:59:53;8.20;82.70
68485;DHT22;55472;50.060;21.960;2023-05-07T12:02:20;8.20;82.30
68485;DHT22;55472;50.060;21.960;2023-05-07T12:04:46;8.20;82.10
68485;DHT22;55472;50.060;21.960;2023-05-07T12:07:15;8.20;82.30
68485;DHT22;55472;50.060;21.960;2023-05-07T12:09:46;8.20;82.40
68485;DHT22;55472;50.060;21.960;2023-05-07T12:12:13;8.20;82.50
68485;DHT22;55472;50.060;21.960;2023-05-07T12:14:45;8.20;82.30
68485;DHT22;55472;50.060;21.960;2023-05-07T12:17:13;8.20;82.10
68485;DHT22;55472;50.060;21.960;2023-05-07T12:19:43;8.20;82.30
68485;DHT22;55472;50.060;21.960;2023-05-07T12:22:09;8.20;82.10
68485;DHT22;55472;50.060;21.960;2023-05-07T12:27:23;8.10;82.40
68485;DHT22;55472;50.060;21.960;2023-05-07T12:29:50;8.20;81.90
68485;DHT22;55472;50.060;21.960;2023-05-07T12:32:17;8.20;81.60
68485;DHT22;55472;50.060;21.960;2023-05-07T12:34:45;8.20;81.90
68485;DHT22;55472;50.060;21.960;2023-05-07T12:37:13;8.10;81.50
68485;DHT22;55472;50.060;21.960;2023-05-07T12:39:47;8.10;82.00
68485;DHT22;55472;50.060;21.960;2023-05-07T12:42:19;8.10;82.10
68485;DHT22;55472;50.060;21.960;2023-05-07T12:44:51;8.10;81.80
68485;DHT22;55472;50.060;21.960;2023-05-07T12:47:18;8.10;81.50
68485;DHT22;55472;50.060;21.960;2023-05-07T12:49:44;8.00;81.30
68485;DHT22;55472;50.060;21.960;2023-05-07T12:52:12;8.00;80.90
68485;DHT22;55472;50.060;21.960;2023-05-07T12:54:38;8.00;81.60
68485;DHT22;55472;50.060;21.960;2023-05-07T12:57:07;8.00;81.60
68485;DHT22;55472;50.060;21.960;2023-05-07T12:59:39;8.00;81.00
68485;DHT22;55472;50.060;21.960;2023-05-07T13:02:06;7.90;81.40
68485;DHT22;55472;50.060;21.960;2023-05-07T13:04:33;7.90;80.80
68485;DHT22;55472;50.060;21.960;2023-05-07T13:07:00;7.80;81.10
68485;DHT22;55472;50.060;21.960;2023-05-07T13:09:27;7.80;81.30
68485;DHT22;55472;50.060;21.960;2023-05-07T13:11:55;7.80;81.90
68485;DHT22;55472;50.060;21.960;2023-05-07T13:14:21;7.80;82.30
68485;DHT22;55472;50.060;21.960;2023-05-07T13:16:48;7.80;82.10
68485;DHT22;55472;50.060;21.960;2023-05-07T13:19:14;7.70;82.50
68485;DHT22;55472;50.060;21.960;2023-05-07T13:21:41;7.70;82.90
68485;DHT22;55472;50.060;21.960;2023-05-07T13:24:07;7.80;82.80
68485;DHT22;55472;50.060;21.960;2023-05-07T13:26:33;7.80;81.80
68485;DHT22;55472;50.060;21.960;2023-05-07T13:29:00;7.80;82.10
68485;DHT22;55472;50.060;21.960;2023-05-07T13:31:26;7.80;82.00
68485;DHT22;55472;50.060;21.960;2023-05-07T13:33:52;7.70;82.10
68485;DHT22;55472;50.060;21.960;2023-05-07T13:36:18;7.70;82.10
68485;DHT22;55472;50.060;21.960;2023-05-07T13:38:45;7.70;82.50
68485;DHT22;55472;50.060;21.960;2023-05-07T13:41:12;7.80;82.40
68485;DHT22;55472;50.060;21.960;2023-05-07T13:43:38;7.70;81.50
68485;DHT22;55472;50.060;21.960;2023-05-07T13:46:05;7.70;81.70
68485;DHT22;55472;50.060;21.960;2023-05-07T13:48:31;7.60;81.60
68485;DHT22;55472;50.060;21.960;2023-05-07T13:50:57;7.60;81.40
68485;DHT22;55472;50.060;21.960;2023-05-07T13:53:23;7.60;82.30
68485;DHT22;55472;50.060;21.960;2023-05-07T13:55:49;7.60;81.90
68485;DHT22;55472;50.060;21.960;2023-05-07T13:58:15;7.60;82.00
68485;DHT22;55472;50.060;21.960;2023-05-07T14:00:41;7.60;82.10
68485;DHT22;55472;50.060;21.960;2023-05-07T14:03:07;7.60;81.90
68485;DHT22;55472;50.060;21.960;2023-05-07T14:05:34;7.60;81.70
68485;DHT22;55472;50.060;21.960;2023-05-07T14:08:01;7.60;82.20
68485;DHT22;55472;50.060;21.960;2023-05-07T14:10:28;7.60;81.60
68485;DHT22;55472;50.060;21.960;2023-05-07T14:12:54;7.60;81.80
68485;DHT22;55472;50.060;21.960;2023-05-07T14:15:21;7.60;81.90
68485;DHT22;55472;50.060;21.960;2023-05-07T14:17:46;7.60;81.40
68485;DHT22;55472;50.060;21.960;2023-05-07T14:20:13;7.60;81.90
68485;DHT22;55472;50.060;21.960;2023-05-07T14:22:39;7.60;81.00
68485;DHT22;55472;50.060;21.960;2023-05-07T14:25:06;7.60;81.20
68485;DHT22;55472;50.060;21.960;2023-05-07T14:27:32;7.50;81.10
68485;DHT22;55472;50.060;21.960;2023-05-07T14:29:59;7.50;80.80
68485;DHT22;55472;50.060;21.960;2023-05-07T14:32:25;7.50;80.90
68485;DHT22;55472;50.060;21.960;2023-05-07T14:34:51;7.50;81.00
68485;DHT22;55472;50.060;21.960;2023-05-07T14:37:17;7.40;81.60
68485;DHT22;55472;50.060;21.960;2023-05-07T14:39:45;7.40;81.70
68485;DHT22;55472;50.060;21.960;2023-05-07T14:42:11;7.40;81.60
68485;DHT22;55472;50.060;21.960;2023-05-07T14:44:38;7.40;81.40
68485;DHT22;55472;50.060;21.960;2023-05-07T14:47:07;7.30;81.90
68485;DHT22;55472;50.060;21.960;2023-05-07T14:49:34;7.30;82.30
68485;DHT22;55472;50.060;21.960;2023-05-07T14:52:00;7.30;82.60
68485;DHT22;55472;50.060;21.960;2023-05-07T14:54:26;7.30;82.30
68485;DHT22;55472;50.060;21.960;2023-05-07T14:56:53;7.20;82.20
68485;DHT22;55472;50.060;21.960;2023-05-07T14:59:19;7.20;82.10
68485;DHT22;55472;50.060;21.960;2023-05-07T15:01:49;7.20;82.70
68485;DHT22;55472;50.060;21.960;2023-05-07T15:04:16;7.10;82.80
68485;DHT22;55472;50.060;21.960;2023-05-07T15:06:42;7.10;82.70
68485;DHT22;55472;50.060;21.960;2023-05-07T15:09:08;7.00;83.90
68485;DHT22;55472;50.060;21.960;2023-05-07T15:11:35;7.10;84.70
68485;DHT22;55472;50.060;21.960;2023-05-07T15:14:01;7.10;85.20
68485;DHT22;55472;50.060;21.960;2023-05-07T15:16:27;7.10;85.50
68485;DHT22;55472;50.060;21.960;2023-05-07T15:18:53;7.10;85.30
68485;DHT22;55472;50.060;21.960;2023-05-07T15:21:19;7.10;85.50
68485;DHT22;55472;50.060;21.960;2023-05-07T15:23:46;7.10;85.50
68485;DHT22;55472;50.060;21.960;2023-05-07T15:26:12;7.10;84.50
68485;DHT22;55472;50.060;21.960;2023-05-07T15:28:38;7.00;84.80
68485;DHT22;55472;50.060;21.960;2023-05-07T15:31:04;7.00;85.10
68485;DHT22;55472;50.060;21.960;2023-05-07T15:33:32;7.00;85.70
68485;DHT22;55472;50.060;21.960;2023-05-07T15:35:58;7.00;86.20
68485;DHT22;55472;50.060;21.960;2023-05-07T15:38:28;7.00;86.40
68485;DHT22;55472;50.060;21.960;2023-05-07T15:40:54;7.00;85.90